Time;durP1;ratioP1;P1;durP2;ratioP2;P2;SDS_P1;SDS_P2;PMS_P1;PMS_P2;Temp;Humidity;BMP_temperature;BMP_pressure;BME280_temperature;BME280_humidity;BME280_pressure;Samples;Min_cycle;Max_cycle;Signal;HPM_P1;HPM_P2
2022/06/04 06:14:21;;;;;;;;;;;;;;;23.54;59.17;97022.56;4200056;27;10451;-70
2022/06/04 06:16:26;;;;;;;;;;;;;;;23.83;58.17;97027.47;4211715;28;5792;-70
2022/06/04 06:18:29;;;;;;;;;;;;;;;24.05;58.28;97034.16;4211731;28;5847;-71
2022/06/04 06:20:32;;;;;;;;;;;;;;;24.23;57.84;97023.84;4211912;28;5819;-70
2022/06/04 06:22:37;;;;;;;;;;;;;;;24.36;57.49;97029.53;4197022;28;6507;-71
2022/06/04 06:24:40;;;;;;;;;;;;;;;24.49;57.12;97020.03;4195339;28;5859;-70
2022/06/04 06:26:45;;;;;;;;;;;;;;;24.57;56.75;97026.72;4195245;28;5853;-71
2022/06/04 06:28:49;;;;;;;;;;;;;;;24.64;56.87;97033.47;4194839;28;5805;-70
2022/06/04 06:30:55;;;;;;;;;;;;;;;24.72;56.65;97034.78;4194898;28;5801;-70
2022/06/04 06:32:59;;;;;;;;;;;;;;;24.79;56.40;97029.88;4193198;28;5829;-70
2022/06/04 06:35:02;;;;;;;;;;;;;;;24.86;56.30;97034.97;4194306;28;6345;-71
2022/06/04 06:37:05;;;;;;;;;;;;;;;24.87;56.04;97026.59;4195032;28;5809;-70
2022/06/04 06:39:08;;;;;;;;;;;;;;;24.95;55.52;97034.13;4194957;28;5829;-70
2022/06/04 06:41:11;;;;;;;;;;;;;;;25.00;55.64;97029.75;4194697;28;5877;-70
2022/06/04 06:43:14;;;;;;;;;;;;;;;25.05;55.52;97027.06;4194712;28;5805;-70
2022/06/04 06:45:17;;;;;;;;;;;;;;;25.09;54.98;97028.94;4194976;28;5816;-70
2022/06/04 06:47:22;;;;;;;;;;;;;;;25.12;54.96;97027.56;4201259;28;5800;-70
2022/06/04 06:49:29;;;;;;;;;;;;;;;25.17;54.55;97024.81;4190717;28;5885;-70
2022/06/04 06:51:35;;;;;;;;;;;;;;;25.21;54.49;97025.88;4178886;28;6567;-70
2022/06/04 06:53:38;;;;;;;;;;;;;;;25.25;54.49;97025.00;4178872;28;5819;-70
2022/06/04 06:55:41;;;;;;;;;;;;;;;25.25;54.17;97018.81;4178826;28;5835;-70
2022/06/04 06:57:44;;;;;;;;;;;;;;;25.24;54.26;97020.69;4178565;28;5870;-71
2022/06/04 06:59:48;;;;;;;;;;;;;;;25.24;54.01;97022.59;4178751;28;5937;-71
2022/06/04 07:01:53;;;;;;;;;;;;;;;25.22;54.28;97022.88;4178431;28;5847;-70
2022/06/04 07:03:58;;;;;;;;;;;;;;;25.19;54.04;97028.06;4184809;28;5832;-70
2022/06/04 07:06:01;;;;;;;;;;;;;;;25.17;53.99;97019.41;4194995;28;6656;-70
2022/06/04 07:08:04;;;;;;;;;;;;;;;25.11;53.63;97021.34;4194778;28;6559;-70
2022/06/04 07:10:08;;;;;;;;;;;;;;;25.07;53.57;97014.88;4183670;28;5822;-70
2022/06/04 07:12:12;;;;;;;;;;;;;;;25.02;53.43;97017.59;4186638;28;5838;-70
2022/06/04 07:14:16;;;;;;;;;;;;;;;25.00;53.45;97013.53;4188629;28;5835;-70
2022/06/04 07:16:20;;;;;;;;;;;;;;;24.96;53.49;97024.13;4183685;28;5937;-70
2022/06/04 07:18:24;;;;;;;;;;;;;;;24.91;53.12;97016.00;4183423;28;5885;-70
2022/06/04 07:20:28;;;;;;;;;;;;;;;24.86;52.97;97014.16;4183458;28;5809;-70
2022/06/04 07:22:31;;;;;;;;;;;;;;;24.84;52.80;97013.63;4182161;28;5853;-70
2022/06/04 07:24:35;;;;;;;;;;;;;;;24.83;52.89;97014.72;4183393;28;5913;-70
2022/06/04 07:26:39;;;;;;;;;;;;;;;24.82;53.01;97013.13;4183643;28;5810;-70
2022/06/04 07:28:43;;;;;;;;;;;;;;;24.79;52.72;97010.94;4183223;28;5908;-70
2022/06/04 07:30:46;;;;;;;;;;;;;;;24.78;52.75;97006.63;4182143;28;5920;-70
2022/06/04 07:32:48;;;;;;;;;;;;;;;24.71;52.34;97006.13;4188031;28;5824;-70
2022/06/04 07:34:52;;;;;;;;;;;;;;;24.67;52.30;97005.88;4196042;28;5784;-70
2022/06/04 07:36:57;;;;;;;;;;;;;;;24.67;52.31;97005.06;4191076;28;5854;-70
2022/06/04 07:39:00;;;;;;;;;;;;;;;24.65;51.98;97001.84;4179050;28;6554;-70
2022/06/04 07:41:03;;;;;;;;;;;;;;;24.61;51.98;97003.47;4171884;28;5866;-70
2022/06/04 07:43:06;;;;;;;;;;;;;;;24.57;52.21;96999.69;4193012;28;5919;-71
2022/06/04 07:45:10;;;;;;;;;;;;;;;24.54;51.72;96994.84;4195685;28;5984;-71
2022/06/04 07:47:13;;;;;;;;;;;;;;;24.50;51.63;96996.50;4192150;28;5800;-71
2022/06/04 07:49:18;;;;;;;;;;;;;;;24.49;51.99;96995.69;4199553;28;5780;-71
2022/06/04 07:51:21;;;;;;;;;;;;;;;24.47;51.63;96989.78;4199944;28;5704;-71
2022/06/04 07:53:26;;;;;;;;;;;;;;;24.45;51.75;96989.22;4199836;28;5843;-71
2022/06/04 07:55:29;;;;;;;;;;;;;;;24.44;51.95;96984.09;4185373;28;5945;-75
2022/06/04 07:57:32;;;;;;;;;;;;;;;24.43;51.68;96982.47;4168117;28;6304;-77
2022/06/04 07:59:35;;;;;;;;;;;;;;;24.41;51.50;96987.34;4181405;28;6489;-78
2022/06/04 08:01:38;;;;;;;;;;;;;;;24.45;51.26;96986.50;4180885;28;5836;-78
2022/06/04 08:03:43;;;;;;;;;;;;;;;24.44;51.47;96984.09;4182001;28;5822;-78
2022/06/04 08:05:46;;;;;;;;;;;;;;;24.44;51.13;96978.69;4182567;28;5808;-78
2022/06/04 08:07:49;;;;;;;;;;;;;;;24.43;51.42;96971.66;4183185;28;5856;-78
2022/06/04 08:09:54;;;;;;;;;;;;;;;24.46;51.37;96960.28;4182604;28;5841;-79
2022/06/04 08:11:57;;;;;;;;;;;;;;;24.49;51.68;96965.16;4166571;28;5953;-78
2022/06/04 08:14:04;;;;;;;;;;;;;;;24.49;51.26;96965.97;4180660;28;5748;-78
2022/06/04 08:16:07;;;;;;;;;;;;;;;24.51;51.23;96952.19;4184835;28;6458;-78
2022/06/04 08:18:11;;;;;;;;;;;;;;;24.52;51.78;96964.59;4195193;28;5830;-78
2022/06/04 08:20:15;;;;;;;;;;;;;;;24.52;51.67;96953.78;4182492;28;5744;-79
2022/06/04 08:22:18;;;;;;;;;;;;;;;24.51;51.69;96961.09;4197470;28;5808;-79
2022/06/04 08:24:22;;;;;;;;;;;;;;;24.53;51.50;96960.81;4184626;28;5748;-79
2022/06/04 08:26:27;;;;;;;;;;;;;;;24.50;51.52;96964.88;4180164;28;5890;-79
2022/06/04 08:28:30;;;;;;;;;;;;;;;24.51;51.83;96973.81;4199208;28;5693;-79
2022/06/04 08:30:33;;;;;;;;;;;;;;;24.53;51.65;96968.91;4189955;28;6141;-78
2022/06/04 08:32:36;;;;;;;;;;;;;;;24.53;51.72;96968.91;4181966;28;5796;-80
2022/06/04 08:34:39;;;;;;;;;;;;;;;24.52;51.82;96962.72;4174870;28;7731;-79
2022/06/04 08:36:42;;;;;;;;;;;;;;;24.50;51.71;96961.38;4190632;28;5843;-79
2022/06/04 08:38:46;;;;;;;;;;;;;;;24.50;51.80;96966.78;4182472;28;6450;-79
2022/06/04 08:40:52;;;;;;;;;;;;;;;24.52;52.13;96970.00;4197309;28;5741;-79
2022/06/04 08:43:12;;;;;;;;;;;;;;;24.56;52.13;96971.06;4197927;28;5768;-79
2022/06/04 08:45:15;;;;;;;;;;;;;;;24.59;51.78;96965.13;4192745;28;5803;-79
2022/06/04 08:47:22;;;;;;;;;;;;;;;24.58;52.08;96958.91;4193233;28;5729;-79
2022/06/04 08:49:30;;;;;;;;;;;;;;;24.59;52.20;96959.72;4198190;28;5824;-79
2022/06/04 08:51:33;;;;;;;;;;;;;;;24.59;51.70;96955.13;4192172;28;5745;-79
2022/06/04 08:53:36;;;;;;;;;;;;;;;24.60;51.74;96955.91;4198410;28;5973;-79
2022/06/04 08:58:22;;;;;;;;;;;;;;;24.60;52.07;96961.31;4191815;28;5769;-78
2022/06/04 09:00:33;;;;;;;;;;;;;;;24.62;52.32;96965.34;4189642;28;5846;-78
2022/06/04 09:02:49;;;;;;;;;;;;;;;24.64;52.19;96978.59;4195784;28;5784;-78
2022/06/04 09:05:00;;;;;;;;;;;;;;;24.65;52.18;96981.00;4187898;28;5835;-76
2022/06/04 09:07:11;;;;;;;;;;;;;;;24.66;52.12;96981.81;4189245;28;5740;-78
2022/06/04 09:09:18;;;;;;;;;;;;;;;24.65;52.05;96988.31;4204865;28;5647;-72
2022/06/04 09:11:26;;;;;;;;;;;;;;;24.65;52.01;96991.81;4190222;28;5783;-72
2022/06/04 09:13:36;;;;;;;;;;;;;;;24.66;51.85;96976.41;4185827;28;5809;-72
2022/06/04 09:15:45;;;;;;;;;;;;;;;24.66;51.89;96976.41;4181920;28;5740;-72
2022/06/04 09:17:52;;;;;;;;;;;;;;;24.66;52.15;96987.22;4182800;28;5848;-72
2022/06/04 09:19:58;;;;;;;;;;;;;;;24.64;52.06;96989.41;4195247;28;5171;-72
2022/06/04 09:22:02;;;;;;;;;;;;;;;24.63;52.12;96985.91;4192730;28;6438;-74
2022/06/04 09:24:07;;;;;;;;;;;;;;;24.64;52.01;96984.00;4193590;28;5733;-72
2022/06/04 09:26:25;;;;;;;;;;;;;;;24.65;52.29;96980.22;4194003;28;5725;-73
2022/06/04 09:28:39;;;;;;;;;;;;;;;24.66;52.25;96987.22;4208082;28;5824;-73
2022/06/04 09:30:48;;;;;;;;;;;;;;;24.66;52.30;96981.81;4186741;28;5771;-73
2022/06/04 09:33:03;;;;;;;;;;;;;;;24.68;51.99;96993.16;4195256;28;5714;-73
2022/06/04 09:35:06;;;;;;;;;;;;;;;24.67;51.91;96978.03;4186890;28;5745;-72
2022/06/04 09:37:11;;;;;;;;;;;;;;;24.65;52.16;96981.00;4183865;28;5646;-73
2022/06/04 09:39:22;;;;;;;;;;;;;;;24.67;52.47;96978.03;4194903;28;5642;-73
2022/06/04 09:41:28;;;;;;;;;;;;;;;24.67;52.29;96978.84;4187229;28;5754;-73
2022/06/04 09:43:31;;;;;;;;;;;;;;;24.64;52.34;96974.00;4185255;28;5740;-72
2022/06/04 09:45:42;;;;;;;;;;;;;;;24.63;52.08;96979.69;4185861;28;6066;-73
2022/06/04 09:47:48;;;;;;;;;;;;;;;24.66;52.22;96965.59;4188353;28;5531;-73
2022/06/04 09:49:55;;;;;;;;;;;;;;;24.65;52.34;96967.50;4191809;28;6692;-75
2022/06/04 09:51:58;;;;;;;;;;;;;;;24.66;52.20;96960.19;4184503;28;5645;-73
2022/06/04 09:54:06;;;;;;;;;;;;;;;24.67;52.09;96965.31;4184191;28;5681;-73
2022/06/04 09:56:13;;;;;;;;;;;;;;;24.71;51.90;96962.88;4183844;28;6311;-73
2022/06/04 09:58:20;;;;;;;;;;;;;;;24.73;51.94;96955.31;4188684;28;5717;-72
2022/06/04 10:00:26;;;;;;;;;;;;;;;24.75;51.98;96955.81;4195451;28;5714;-73
2022/06/04 10:02:30;;;;;;;;;;;;;;;24.77;52.13;96961.75;4190065;28;5863;-73
2022/06/04 10:04:41;;;;;;;;;;;;;;;24.82;51.92;96958.22;4186371;28;5751;-73
2022/06/04 10:06:44;;;;;;;;;;;;;;;24.83;51.63;96957.94;4172637;28;5764;-72
2022/06/04 10:11:18;;;;;;;;;;;;;;;24.83;51.52;96966.06;4195989;28;5776;-73
2022/06/04 10:13:45;;;;;;;;;;;;;;;24.84;51.71;96961.44;4183614;28;5630;-73
2022/06/04 10:15:50;;;;;;;;;;;;;;;24.84;51.78;96959.56;4186384;28;5713;-74
2022/06/04 10:18:05;;;;;;;;;;;;;;;24.86;51.83;96956.56;4200571;28;5630;-74
2022/06/04 10:20:20;;;;;;;;;;;;;;;24.88;51.63;96955.19;4200271;28;5635;-74
2022/06/04 10:22:23;;;;;;;;;;;;;;;24.89;51.63;96954.09;4187791;28;5638;-74
2022/06/04 10:24:28;;;;;;;;;;;;;;;24.92;51.83;96956.25;4199447;28;5702;-74
2022/06/04 10:26:48;;;;;;;;;;;;;;;24.96;51.68;96953.78;4200529;28;5710;-73
2022/06/04 10:29:05;;;;;;;;;;;;;;;25.00;51.50;96959.44;4200782;28;5642;-74
2022/06/04 10:31:16;;;;;;;;;;;;;;;25.05;51.38;96959.44;4183005;28;7710;-73
2022/06/04 10:33:35;;;;;;;;;;;;;;;25.07;51.34;96958.06;4183515;28;5673;-73
2022/06/04 10:35:51;;;;;;;;;;;;;;;25.08;51.53;96957.00;4183568;28;5641;-73
2022/06/04 10:38:10;;;;;;;;;;;;;;;25.07;51.44;96958.06;4197417;28;5623;-73
2022/06/04 10:40:40;;;;;;;;;;;;;;;25.10;51.47;96962.91;4184212;28;5641;-73
2022/06/04 10:43:26;;;;;;;;;;;;;;;25.12;51.70;96959.94;4183582;28;5638;-73
2022/06/04 10:45:34;;;;;;;;;;;;;;;25.12;51.45;96962.63;4184721;28;5665;-73
2022/06/04 10:47:44;;;;;;;;;;;;;;;25.11;51.52;96959.13;4183150;28;5815;-73
2022/06/04 10:50:24;;;;;;;;;;;;;;;25.12;51.47;96952.63;4185079;28;5828;-73
2022/06/04 10:52:39;;;;;;;;;;;;;;;25.13;51.39;96948.00;4186751;28;5792;-73
2022/06/04 10:54:49;;;;;;;;;;;;;;;25.11;51.49;96945.59;4186702;28;5063;-73
2022/06/04 10:56:59;;;;;;;;;;;;;;;25.09;51.45;96928.84;4186811;28;5638;-73
2022/06/04 10:59:09;;;;;;;;;;;;;;;25.13;51.46;96937.19;4169115;28;5724;-74
2022/06/04 11:01:20;;;;;;;;;;;;;;;25.12;51.14;96936.38;4189428;28;7715;-73
2022/06/04 11:03:39;;;;;;;;;;;;;;;25.12;51.08;96938.28;4200715;28;5635;-73
2022/06/04 11:05:47;;;;;;;;;;;;;;;25.13;51.08;96938.00;4186288;28;5661;-73
2022/06/04 11:07:59;;;;;;;;;;;;;;;25.16;51.41;96934.75;4168889;28;5727;-74
2022/06/04 11:10:06;;;;;;;;;;;;;;;25.17;51.17;96930.16;4186555;28;6352;-74
2022/06/04 11:12:24;;;;;;;;;;;;;;;25.18;51.03;96926.34;4186719;28;5649;-73
2022/06/04 11:14:43;;;;;;;;;;;;;;;25.21;51.12;96921.16;4165472;28;6595;-74
2022/06/04 11:16:53;;;;;;;;;;;;;;;25.23;51.37;96924.38;4153824;28;5867;-73
2022/06/04 11:19:02;;;;;;;;;;;;;;;25.26;51.00;96923.03;4153374;28;5804;-75
2022/06/04 11:21:12;;;;;;;;;;;;;;;25.30;51.02;96912.44;4166830;28;5833;-74
2022/06/04 11:23:34;;;;;;;;;;;;;;;25.34;51.39;96910.78;4168660;28;5782;-75
2022/06/04 11:25:42;;;;;;;;;;;;;;;25.34;51.16;96910.78;4169763;28;6405;-74
2022/06/04 11:27:51;;;;;;;;;;;;;;;25.36;50.98;96909.41;4169208;28;5922;-75
2022/06/04 11:29:55;;;;;;;;;;;;;;;25.39;50.80;96910.75;4165709;28;5795;-74
2022/06/04 11:32:08;;;;;;;;;;;;;;;25.37;51.18;96910.19;4169515;28;5743;-75
2022/06/04 11:34:53;;;;;;;;;;;;;;;25.40;51.09;96912.34;4167873;28;5748;-74
2022/06/04 11:37:06;;;;;;;;;;;;;;;25.43;50.87;96912.59;4168231;28;5739;-75
2022/06/04 11:39:26;;;;;;;;;;;;;;;25.47;51.21;96908.19;4169362;28;5734;-74
2022/06/04 11:41:35;;;;;;;;;;;;;;;25.46;50.99;96897.66;4169801;28;6405;-75
2022/06/04 11:44:02;;;;;;;;;;;;;;;25.47;50.93;96897.38;4168772;28;5739;-75
2022/06/04 11:46:20;;;;;;;;;;;;;;;25.50;50.96;96901.44;4159225;28;5884;-73
2022/06/04 11:48:39;;;;;;;;;;;;;;;25.52;50.89;96900.06;4168221;28;5680;-73
2022/06/04 11:50:48;;;;;;;;;;;;;;;25.54;50.83;96905.97;4168791;28;5751;-74
2022/06/04 11:53:03;;;;;;;;;;;;;;;25.54;51.31;96895.16;4169045;28;5751;-75
2022/06/04 11:55:26;;;;;;;;;;;;;;;25.57;50.99;96901.06;4168873;28;5806;-74
2022/06/04 11:57:37;;;;;;;;;;;;;;;25.58;50.91;96894.56;4169542;28;5735;-74
2022/06/04 12:00:01;;;;;;;;;;;;;;;25.59;51.13;96890.75;4155382;28;5226;-73
2022/06/04 12:02:14;;;;;;;;;;;;;;;25.62;50.76;96884.81;4153036;28;5840;-73
2022/06/04 12:04:25;;;;;;;;;;;;;;;25.62;51.17;96888.31;4162422;28;5743;-75
2022/06/04 12:06:36;;;;;;;;;;;;;;;25.67;50.87;96887.44;4169484;28;5818;-75
2022/06/04 12:08:43;;;;;;;;;;;;;;;25.67;50.69;96876.63;4167803;28;6413;-74
2022/06/04 12:10:59;;;;;;;;;;;;;;;25.72;51.10;96871.19;4152986;28;5765;-74
2022/06/04 12:13:08;;;;;;;;;;;;;;;25.71;50.90;96875.81;4165175;28;5702;-72
2022/06/04 12:15:22;;;;;;;;;;;;;;;25.72;50.82;96874.69;4191013;28;6548;-74
2022/06/04 12:17:30;;;;;;;;;;;;;;;25.74;50.93;96879.81;4193040;28;5717;-75
2022/06/04 12:24:42;;;;;;;;;;;;;;;25.82;50.73;96873.75;4191949;28;5704;-74
2022/06/04 12:26:48;;;;;;;;;;;;;;;25.86;50.68;96871.28;4188096;28;5627;-75
2022/06/04 12:28:53;;;;;;;;;;;;;;;25.86;50.47;96874.81;4187258;28;5883;-74
2022/06/04 12:31:00;;;;;;;;;;;;;;;25.94;50.50;96873.38;4187121;28;5626;-74
2022/06/04 12:33:18;;;;;;;;;;;;;;;25.97;50.41;96868.16;4190934;28;6315;-74
2022/06/04 12:35:23;;;;;;;;;;;;;;;25.99;50.16;96870.59;4188127;28;5791;-74
2022/06/04 12:37:33;;;;;;;;;;;;;;;25.96;50.39;96866.56;4187887;28;5662;-75
2022/06/04 12:39:38;;;;;;;;;;;;;;;25.99;50.39;96863.25;4190290;28;5673;-75
2022/06/04 12:41:49;;;;;;;;;;;;;;;26.01;50.36;96860.25;4185617;28;5670;-75
2022/06/04 12:43:58;;;;;;;;;;;;;;;26.03;50.08;96853.44;4191862;28;6313;-75
2022/06/04 12:46:17;;;;;;;;;;;;;;;26.04;50.41;96846.94;4194646;28;6330;-74
2022/06/04 12:48:38;;;;;;;;;;;;;;;26.05;50.10;96843.16;4196485;28;5799;-74
2022/06/04 12:50:48;;;;;;;;;;;;;;;26.05;50.38;96845.06;4192065;28;6111;-73
2022/06/04 12:52:59;;;;;;;;;;;;;;;26.06;50.19;96842.06;4187258;28;5862;-76
2022/06/04 12:55:11;;;;;;;;;;;;;;;26.10;50.15;96837.66;4190404;28;6342;-76
2022/06/04 12:57:50;;;;;;;;;;;;;;;26.09;50.27;96841.47;4187121;28;5724;-76
2022/06/04 13:00:11;;;;;;;;;;;;;;;26.15;50.11;96842.19;4193899;28;5793;-77
2022/06/04 13:02:29;;;;;;;;;;;;;;;26.16;50.44;96829.44;4192073;28;5642;-77
2022/06/04 13:04:38;;;;;;;;;;;;;;;26.19;50.16;96828.88;4182701;28;5752;-77
2022/06/04 13:06:47;;;;;;;;;;;;;;;26.20;50.31;96833.22;4195915;28;5741;-77
2022/06/04 13:09:02;;;;;;;;;;;;;;;26.21;50.48;96827.50;4197380;28;5833;-77
2022/06/04 13:11:20;;;;;;;;;;;;;;;26.24;50.45;96826.91;4190220;28;5757;-74
2022/06/04 13:13:42;;;;;;;;;;;;;;;26.26;50.25;96823.88;4193276;28;5843;-76
2022/06/04 13:16:01;;;;;;;;;;;;;;;26.29;50.34;96824.13;4188157;28;5729;-76
2022/06/04 13:18:05;;;;;;;;;;;;;;;26.32;50.29;96823.53;4189700;28;5835;-72
2022/06/04 13:20:36;;;;;;;;;;;;;;;26.34;50.47;96820.53;4194473;28;6487;-70
2022/06/04 13:22:45;;;;;;;;;;;;;;;26.36;50.29;96811.03;4190435;28;5740;-71
2022/06/04 13:24:49;;;;;;;;;;;;;;;26.35;50.23;96805.88;4190112;28;5825;-70
2022/06/04 13:26:58;;;;;;;;;;;;;;;26.36;50.48;96808.31;4195327;28;5828;-72
2022/06/04 13:29:24;;;;;;;;;;;;;;;26.36;50.38;96802.06;4181819;28;5912;-71
2022/06/04 13:31:29;;;;;;;;;;;;;;;26.37;50.55;96809.94;4191214;28;5742;-70
2022/06/04 13:33:37;;;;;;;;;;;;;;;26.42;50.34;96800.94;4197502;28;5721;-68
2022/06/04 13:35:45;;;;;;;;;;;;;;;26.46;50.40;96801.94;4198161;28;5738;-69
2022/06/04 13:37:50;;;;;;;;;;;;;;;26.50;50.39;96800.25;4197057;28;5106;-68
2022/06/04 13:39:55;;;;;;;;;;;;;;;26.57;50.13;96797.16;4184704;28;5735;-70
2022/06/04 13:42:05;;;;;;;;;;;;;;;26.62;50.18;96802.53;4198162;28;5725;-68
2022/06/04 13:44:17;;;;;;;;;;;;;;;26.65;50.02;96800.03;4195407;28;5857;-68
2022/06/04 13:46:25;;;;;;;;;;;;;;;26.68;49.85;96795.91;4197943;28;6419;-67
2022/06/04 13:48:28;;;;;;;;;;;;;;;26.69;49.69;96786.66;4198255;28;5733;-68
2022/06/04 13:50:33;;;;;;;;;;;;;;;26.70;49.81;96791.78;4197760;28;5643;-68
2022/06/04 13:52:44;;;;;;;;;;;;;;;26.69;49.91;96792.09;4194992;28;5658;-68
2022/06/04 13:54:53;;;;;;;;;;;;;;;26.70;50.09;96786.38;4193398;28;5749;-70
2022/06/04 13:56:58;;;;;;;;;;;;;;;26.75;49.85;96787.41;4186470;28;5706;-66
2022/06/04 13:59:01;;;;;;;;;;;;;;;26.75;49.73;96790.13;4198223;28;5729;-68
2022/06/04 14:01:11;;;;;;;;;;;;;;;26.78;49.84;96784.09;4198015;28;5722;-66
2022/06/04 14:03:16;;;;;;;;;;;;;;;26.79;49.67;96788.41;4197097;28;5856;-66
2022/06/04 14:07:46;;;;;;;;;;;;;;;26.78;49.55;96782.19;4198108;28;5804;-65
2022/06/04 14:09:53;;;;;;;;;;;;;;;26.71;49.81;96776.31;4197973;28;5717;-64
2022/06/04 14:12:06;;;;;;;;;;;;;;;26.69;49.77;96776.63;4204300;28;5722;-66
2022/06/04 14:14:25;;;;;;;;;;;;;;;26.71;49.59;96770.91;4189299;28;5694;-63
2022/06/04 14:16:43;;;;;;;;;;;;;;;26.78;49.40;96773.25;4198016;28;5728;-63
2022/06/04 14:19:02;;;;;;;;;;;;;;;26.80;49.10;96774.53;4197676;28;5641;-65
2022/06/04 14:21:16;;;;;;;;;;;;;;;26.76;49.21;96770.84;4197904;28;5647;-64
2022/06/04 14:23:33;;;;;;;;;;;;;;;26.77;49.08;96771.63;4198073;28;5685;-63
2022/06/04 14:25:46;;;;;;;;;;;;;;;26.83;49.08;96768.53;4200344;28;5642;-66
2022/06/04 14:28:00;;;;;;;;;;;;;;;26.85;48.91;96765.53;4198741;28;5849;-65
2022/06/04 14:30:13;;;;;;;;;;;;;;;26.82;48.79;96760.69;4190833;28;5797;-67
2022/06/04 14:32:24;;;;;;;;;;;;;;;26.76;48.99;96765.41;4176884;28;5837;-67
2022/06/04 14:34:35;;;;;;;;;;;;;;;26.70;49.13;96761.97;4196650;28;5742;-70
2022/06/04 14:36:48;;;;;;;;;;;;;;;26.67;49.13;96754.44;4196689;28;5729;-70
2022/06/04 14:38:53;;;;;;;;;;;;;;;26.67;48.81;96757.13;4192763;28;5811;-66
2022/06/04 14:41:02;;;;;;;;;;;;;;;26.68;48.72;96757.94;4200968;28;5843;-67
2022/06/04 14:43:36;;;;;;;;;;;;;;;26.68;48.47;96755.22;4183072;28;5844;-66
2022/06/04 14:45:51;;;;;;;;;;;;;;;26.70;48.56;96747.59;4164706;28;5851;-69
2022/06/04 14:48:39;;;;;;;;;;;;;;;26.70;48.17;96753.81;4200766;28;5749;-69
2022/06/04 14:50:54;;;;;;;;;;;;;;;26.69;48.18;96741.38;4200713;28;5738;-69
2022/06/04 14:53:00;;;;;;;;;;;;;;;26.66;48.19;96736.56;4200056;28;5730;-68
2022/06/04 14:55:08;;;;;;;;;;;;;;;26.67;48.03;96727.31;4189620;28;6439;-68
2022/06/04 14:57:50;;;;;;;;;;;;;;;26.75;47.60;96730.47;4200598;28;5854;-75
2022/06/04 15:00:15;;;;;;;;;;;;;;;26.84;47.32;96721.34;4200548;28;5765;-74
2022/06/04 15:02:33;;;;;;;;;;;;;;;26.88;46.97;96721.53;4194645;28;5730;-71
2022/06/04 15:05:18;;;;;;;;;;;;;;;26.86;47.07;96729.19;4189318;28;5745;-68
2022/06/04 15:08:02;;;;;;;;;;;;;;;26.77;47.07;96714.69;4184245;28;5756;-72
2022/06/04 15:10:24;;;;;;;;;;;;;;;26.70;46.77;96715.88;4190409;28;5757;-73
2022/06/04 15:12:39;;;;;;;;;;;;;;;26.69;46.92;96727.00;4194621;28;5733;-81
2022/06/04 15:15:01;;;;;;;;;;;;;;;26.66;46.84;96717.56;4175624;28;5750;-74
2022/06/04 15:17:20;;;;;;;;;;;;;;;26.68;46.83;96719.97;4195227;28;5795;-74
2022/06/04 15:19:37;;;;;;;;;;;;;;;26.65;47.04;96729.53;4191706;28;5850;-73
2022/06/04 15:21:56;;;;;;;;;;;;;;;26.69;46.87;96727.81;4197856;28;5761;-74
2022/06/04 15:24:28;;;;;;;;;;;;;;;26.71;46.50;96727.50;4190750;28;5780;-74
2022/06/04 15:26:40;;;;;;;;;;;;;;;26.69;46.64;96718.88;4193536;28;5773;-74
2022/06/04 15:33:56;;;;;;;;;;;;;;;26.72;46.13;96706.63;4187170;28;5752;-69
2022/06/04 15:36:14;;;;;;;;;;;;;;;26.67;46.29;96700.19;4192484;28;5748;-74
2022/06/04 15:38:26;;;;;;;;;;;;;;;26.65;46.12;96694.28;4190188;28;5774;-73
2022/06/04 15:40:30;;;;;;;;;;;;;;;26.63;46.17;96695.69;4190999;28;5756;-74
2022/06/04 15:42:46;;;;;;;;;;;;;;;26.60;46.03;96686.22;4197845;28;5722;-74
2022/06/04 15:45:02;;;;;;;;;;;;;;;26.62;45.86;96677.81;4190586;28;5722;-74
2022/06/04 15:47:15;;;;;;;;;;;;;;;26.63;45.69;96672.09;4196198;28;5665;-73
2022/06/04 15:55:22;;;;;;;;;;;;;;;26.65;45.85;96678.00;4198171;28;5646;-74
2022/06/04 15:56:46;;;;;;;;;;;;;;;26.66;45.42;96654.41;4183089;28;5744;-75
2022/06/04 15:59:00;;;;;;;;;;;;;;;26.60;45.51;96653.69;4183155;28;6466;-74
2022/06/04 16:01:10;;;;;;;;;;;;;;;26.59;45.62;96651.28;4183232;28;5756;-74
2022/06/04 16:03:18;;;;;;;;;;;;;;;26.58;45.27;96660.50;4189680;28;5866;-74
2022/06/04 16:05:26;;;;;;;;;;;;;;;26.59;45.57;96665.63;4190581;28;5917;-74
2022/06/04 16:07:36;;;;;;;;;;;;;;;26.60;45.30;96664.53;4193295;28;6462;-75
2022/06/04 16:09:39;;;;;;;;;;;;;;;26.59;45.25;96662.94;4199420;28;5730;-73
2022/06/04 16:11:55;;;;;;;;;;;;;;;26.60;45.60;96669.94;4199469;28;5717;-73
2022/06/04 16:14:15;;;;;;;;;;;;;;;26.56;45.52;96660.81;4199344;28;5726;-73
2022/06/04 16:16:41;;;;;;;;;;;;;;;26.56;45.45;96665.44;4199529;28;5749;-74
2022/06/04 16:19:02;;;;;;;;;;;;;;;26.55;45.62;96672.75;4199377;28;5726;-73
2022/06/04 16:21:20;;;;;;;;;;;;;;;26.54;45.85;96681.19;4199291;28;5693;-74
2022/06/04 16:23:35;;;;;;;;;;;;;;;26.54;45.75;96684.72;4199169;28;5626;-74
2022/06/04 16:25:45;;;;;;;;;;;;;;;26.54;45.74;96687.44;4199390;28;6113;-74
2022/06/04 16:28:07;;;;;;;;;;;;;;;26.54;46.13;96695.56;4194282;28;5090;-74
2022/06/04 16:30:21;;;;;;;;;;;;;;;26.57;46.21;96688.72;4171393;28;5965;-74
2022/06/04 16:32:24;;;;;;;;;;;;;;;26.58;46.03;96685.72;4199069;28;5741;-74
2022/06/04 16:34:49;;;;;;;;;;;;;;;26.64;46.51;96689.97;4198686;28;5745;-74
2022/06/04 16:36:55;;;;;;;;;;;;;;;26.65;46.55;96686.16;4199143;28;5765;-74
2022/06/04 16:38:58;;;;;;;;;;;;;;;26.63;46.46;96685.66;4192741;28;6588;-73
2022/06/04 16:43:24;;;;;;;;;;;;;;;26.57;46.98;96678.69;4179932;28;5809;-74
2022/06/04 16:45:29;;;;;;;;;;;;;;;26.58;47.05;96691.13;4180167;28;5749;-74
2022/06/04 16:47:55;;;;;;;;;;;;;;;26.57;47.16;96683.31;4179239;28;5769;-74
2022/06/04 16:49:59;;;;;;;;;;;;;;;26.55;47.19;96682.81;4179666;28;6510;-75
2022/06/04 16:52:02;;;;;;;;;;;;;;;26.53;47.06;96683.13;4190383;28;6477;-74
2022/06/04 16:54:06;;;;;;;;;;;;;;;26.55;47.26;96691.75;4180027;28;5772;-74
2022/06/04 16:56:08;;;;;;;;;;;;;;;26.56;47.21;96685.22;4179961;28;5772;-74
2022/06/04 16:58:11;;;;;;;;;;;;;;;26.56;47.00;96693.34;4179847;28;5782;-74
2022/06/04 17:00:19;;;;;;;;;;;;;;;26.57;46.95;96694.97;4185067;28;5722;-73
2022/06/04 17:03:00;;;;;;;;;;;;;;;26.56;47.03;96687.13;4184968;28;5790;-74
2022/06/04 17:05:18;;;;;;;;;;;;;;;26.54;47.27;96682.00;4177356;28;6568;-73
2022/06/04 17:07:26;;;;;;;;;;;;;;;26.55;46.99;96680.91;4188421;28;5746;-74
2022/06/04 17:09:50;;;;;;;;;;;;;;;26.62;47.13;96685.94;4196289;28;5741;-74
2022/06/04 17:12:07;;;;;;;;;;;;;;;26.65;46.97;96680.72;4189526;28;5733;-74
2022/06/04 17:14:16;;;;;;;;;;;;;;;26.69;47.10;96684.44;4179722;28;5697;-74
2022/06/04 17:16:29;;;;;;;;;;;;;;;26.68;46.88;96688.25;4189298;28;5681;-74
2022/06/04 17:19:04;;;;;;;;;;;;;;;26.69;46.72;96692.56;4166358;28;5767;-75
2022/06/04 17:21:19;;;;;;;;;;;;;;;26.71;46.78;96686.84;4183394;28;7702;-75
2022/06/04 17:23:27;;;;;;;;;;;;;;;26.74;46.87;96682.75;4184702;28;5764;-75
2022/06/04 17:25:56;;;;;;;;;;;;;;;26.75;46.60;96678.94;4184637;28;5073;-74
2022/06/04 17:28:14;;;;;;;;;;;;;;;26.72;46.67;96682.22;4184605;28;5665;-75
2022/06/04 17:30:21;;;;;;;;;;;;;;;26.72;46.54;96684.94;4184447;28;6358;-75
2022/06/04 17:32:36;;;;;;;;;;;;;;;26.66;46.51;96693.19;4184567;28;5634;-74
2022/06/04 17:34:56;;;;;;;;;;;;;;;26.66;46.51;96701.31;4184233;28;5670;-75
2022/06/04 17:37:12;;;;;;;;;;;;;;;26.67;46.74;96702.91;4184770;28;5654;-75
2022/06/04 17:39:29;;;;;;;;;;;;;;;26.64;46.84;96705.44;4184593;28;6525;-74
2022/06/04 17:41:37;;;;;;;;;;;;;;;26.60;46.90;96697.06;4166613;28;5804;-74
2022/06/04 17:43:41;;;;;;;;;;;;;;;26.60;46.83;96698.97;4183015;28;5722;-74
2022/06/04 17:45:46;;;;;;;;;;;;;;;26.63;46.89;96706.53;4184597;28;5657;-74
2022/06/04 17:47:52;;;;;;;;;;;;;;;26.62;46.68;96703.00;4199782;28;5721;-74
2022/06/04 17:49:55;;;;;;;;;;;;;;;26.61;46.77;96697.88;4184027;28;5658;-74
2022/06/04 17:51:58;;;;;;;;;;;;;;;26.62;47.00;96703.00;4184469;28;5641;-74
2022/06/04 17:54:03;;;;;;;;;;;;;;;26.60;47.24;96701.69;4184120;28;5673;-74
2022/06/04 17:56:07;;;;;;;;;;;;;;;26.59;46.96;96703.59;4184337;28;5653;-74
2022/06/04 17:58:10;;;;;;;;;;;;;;;26.55;47.18;96702.59;4184047;28;5701;-74
2022/06/04 18:00:16;;;;;;;;;;;;;;;26.55;47.19;96712.63;4184380;28;5788;-74
2022/06/04 18:02:19;;;;;;;;;;;;;;;26.52;47.31;96708.63;4184031;28;5752;-74
2022/06/04 18:04:24;;;;;;;;;;;;;;;26.51;47.27;96700.78;4183029;28;5634;-75
2022/06/04 18:06:27;;;;;;;;;;;;;;;26.54;47.47;96702.88;4183820;28;6319;-74
2022/06/04 18:08:30;;;;;;;;;;;;;;;26.54;47.47;96702.88;4184375;28;6324;-73